createdAt,value
2023-03-18T00:02:09.553Z,3.93
2023-03-18T00:04:37.153Z,3.90
2023-03-18T00:07:04.623Z,4.40
2023-03-18T00:09:33.667Z,4.23
2023-03-18T00:12:01.430Z,4.23
2023-03-18T00:14:29.951Z,4.07
2023-03-18T00:16:57.473Z,3.90
2023-03-18T00:19:25.189Z,4.17
2023-03-18T00:21:52.812Z,4.33
2023-03-18T00:24:20.696Z,4.17
2023-03-18T00:26:49.440Z,3.90
2023-03-18T00:29:16.953Z,3.90
2023-03-18T00:31:44.947Z,4.10
2023-03-18T00:34:13.075Z,4.00
2023-03-18T00:36:40.565Z,3.87
2023-03-18T00:39:09.294Z,4.07
2023-03-18T00:41:38.047Z,4.57
2023-03-18T00:44:07.521Z,3.77
2023-03-18T00:46:35.767Z,3.97
2023-03-18T00:49:05.138Z,4.00
2023-03-18T00:51:34.859Z,3.83
2023-03-18T00:54:03.252Z,4.17
2023-03-18T00:56:31.968Z,3.90
2023-03-18T00:59:00.108Z,4.47
2023-03-18T01:01:28.967Z,3.83
2023-03-18T01:03:56.491Z,3.83
2023-03-18T01:06:25.612Z,3.30
2023-03-18T01:08:54.224Z,4.33
2023-03-18T01:11:22.108Z,4.30
2023-03-18T01:13:49.867Z,3.80
2023-03-18T01:16:17.780Z,4.10
2023-03-18T01:18:46.775Z,4.23
2023-03-18T01:21:14.739Z,4.40
2023-03-18T01:23:42.360Z,4.27
2023-03-18T01:26:10.709Z,4.40
2023-03-18T01:28:38.225Z,4.60
2023-03-18T01:31:05.768Z,4.00
2023-03-18T01:33:33.456Z,4.43
2023-03-18T01:36:03.797Z,4.30
2023-03-18T01:38:31.561Z,4.50
2023-03-18T01:41:00.096Z,4.10
2023-03-18T01:43:29.006Z,4.40
2023-03-18T01:45:58.437Z,4.00
2023-03-18T01:48:27.489Z,4.30
2023-03-18T01:50:59.205Z,4.10
2023-03-18T01:53:29.290Z,4.17
2023-03-18T01:55:57.869Z,3.90
2023-03-18T01:58:28.031Z,4.60
2023-03-18T02:00:58.895Z,4.67
2023-03-18T02:03:27.700Z,4.20
2023-03-18T02:05:55.448Z,5.17
2023-03-18T02:08:22.972Z,4.80
2023-03-18T02:10:51.899Z,4.40
2023-03-18T02:13:19.597Z,4.07
2023-03-18T02:15:49.281Z,4.50
2023-03-18T02:18:19.381Z,5.00
2023-03-18T02:20:52.624Z,4.90
2023-03-18T02:23:23.586Z,4.80
2023-03-18T02:25:54.614Z,4.97
2023-03-18T02:28:25.248Z,4.70
2023-03-18T02:30:54.122Z,4.67
2023-03-18T02:33:23.087Z,5.10
2023-03-18T02:35:52.593Z,4.77
2023-03-18T02:38:19.981Z,5.23
2023-03-18T02:40:47.439Z,5.40
2023-03-18T02:43:21.964Z,4.87
2023-03-18T02:45:56.558Z,5.10
2023-03-18T02:48:24.644Z,5.20
2023-03-18T02:50:52.134Z,4.80
2023-03-18T02:53:19.625Z,5.27
2023-03-18T02:55:47.404Z,5.07
2023-03-18T02:58:14.805Z,4.90
2023-03-18T03:00:42.252Z,5.20
2023-03-18T03:03:11.232Z,4.60
2023-03-18T03:05:39.081Z,5.40
2023-03-18T03:08:06.716Z,5.17
2023-03-18T03:10:34.603Z,5.40
2023-03-18T03:13:02.055Z,5.10
2023-03-18T03:15:29.594Z,4.93
2023-03-18T03:17:57.134Z,4.90
2023-03-18T03:20:26.197Z,5.00
2023-03-18T03:22:54.228Z,5.00
2023-03-18T03:25:22.657Z,4.33
2023-03-18T03:27:50.339Z,5.03
2023-03-18T03:30:18.448Z,5.10
2023-03-18T03:32:46.339Z,5.20
2023-03-18T03:35:14.164Z,5.10
2023-03-18T03:37:43.823Z,4.60
2023-03-18T03:40:12.241Z,4.97
2023-03-18T03:42:40.329Z,4.70
2023-03-18T03:45:09.160Z,4.87
2023-03-18T03:47:37.366Z,4.93
2023-03-18T03:50:05.825Z,5.20
2023-03-18T03:52:33.684Z,4.30
2023-03-18T03:55:02.674Z,4.87
2023-03-18T03:57:30.151Z,4.73
2023-03-18T03:59:57.601Z,5.03
2023-03-18T04:02:27.043Z,4.70
2023-03-18T04:04:54.852Z,5.00
2023-03-18T04:07:22.291Z,4.90
2023-03-18T04:09:50.113Z,5.50
2023-03-18T04:12:19.714Z,5.07
2023-03-18T04:14:49.576Z,4.50
2023-03-18T04:17:18.861Z,4.77
2023-03-18T04:19:46.406Z,4.70
2023-03-18T04:22:13.876Z,4.80
2023-03-18T04:24:41.490Z,5.00
2023-03-18T04:27:09.013Z,4.63
2023-03-18T04:29:37.984Z,4.87
2023-03-18T04:32:05.733Z,4.83
2023-03-18T04:34:33.136Z,4.97
2023-03-18T04:37:00.570Z,4.97
2023-03-18T04:39:28.032Z,4.90
2023-03-18T04:41:56.988Z,4.90
2023-03-18T04:44:24.919Z,4.50
2023-03-18T04:46:53.988Z,4.80
2023-03-18T04:49:21.633Z,4.37
2023-03-18T04:51:49.111Z,4.50
2023-03-18T04:54:16.740Z,4.70
2023-03-18T04:56:44.667Z,4.63
2023-03-18T04:59:12.117Z,4.43
2023-03-18T05:01:39.557Z,4.47
2023-03-18T05:04:08.443Z,4.77
2023-03-18T05:06:35.950Z,4.27
2023-03-18T05:09:05.291Z,4.90
2023-03-18T05:11:33.056Z,4.90
2023-03-18T05:14:00.552Z,4.70
2023-03-18T05:16:27.991Z,4.80
2023-03-18T05:18:55.479Z,4.90
2023-03-18T05:21:24.361Z,4.23
2023-03-18T05:23:51.977Z,4.43
2023-03-18T05:26:19.524Z,5.07
2023-03-18T05:28:46.968Z,4.57
2023-03-18T05:31:14.440Z,4.50
2023-03-18T05:33:43.198Z,4.80
2023-03-18T05:36:10.848Z,4.87
2023-03-18T05:38:39.674Z,4.63
2023-03-18T05:41:07.337Z,4.83
2023-03-18T05:43:34.818Z,4.73
2023-03-18T05:46:02.327Z,4.53
2023-03-18T05:48:29.945Z,5.07
2023-03-18T05:50:58.716Z,4.93
2023-03-18T05:53:26.383Z,5.40
2023-03-18T05:55:56.317Z,5.10
2023-03-18T05:58:24.068Z,4.90
2023-03-18T06:00:51.505Z,4.90
2023-03-18T06:03:19.167Z,4.80
2023-03-18T06:05:47.681Z,5.00
2023-03-18T06:08:15.517Z,4.80
2023-03-18T06:10:42.937Z,4.80
2023-03-18T06:13:12.067Z,5.00
2023-03-18T06:15:39.921Z,4.90
2023-03-18T06:18:07.337Z,4.50
2023-03-18T06:20:35.450Z,4.50
2023-03-18T06:23:03.703Z,4.80
2023-03-18T06:25:31.395Z,4.20
2023-03-18T06:27:59.038Z,4.57
2023-03-18T06:30:27.790Z,4.70
2023-03-18T06:32:55.248Z,4.50
2023-03-18T06:35:23.163Z,4.50
2023-03-18T06:37:50.563Z,4.87
2023-03-18T06:40:18.481Z,4.33
2023-03-18T06:42:46.427Z,4.50
2023-03-18T06:45:15.240Z,4.33
2023-03-18T06:47:44.026Z,4.40
2023-03-18T06:50:13.491Z,4.90
2023-03-18T06:52:41.394Z,5.03
2023-03-18T06:55:09.649Z,4.60
2023-03-18T06:57:37.061Z,4.13
2023-03-18T07:00:05.407Z,4.63
2023-03-18T07:02:33.581Z,4.43
2023-03-18T07:05:02.337Z,4.33
2023-03-18T07:07:29.709Z,4.20
2023-03-18T07:09:57.150Z,4.17
2023-03-18T07:12:24.635Z,4.40
2023-03-18T07:14:53.461Z,4.40
2023-03-18T07:17:20.897Z,4.10
2023-03-18T07:19:48.594Z,4.13
2023-03-18T07:22:17.780Z,3.80
2023-03-18T07:24:45.397Z,4.20
2023-03-18T07:27:13.358Z,3.70
2023-03-18T07:29:40.957Z,3.50
2023-03-18T07:32:08.361Z,3.70
2023-03-18T07:34:36.084Z,4.13
2023-03-18T07:37:04.072Z,4.10
2023-03-18T07:39:33.653Z,3.70
2023-03-18T07:42:02.142Z,3.77
2023-03-18T07:44:29.816Z,3.70
2023-03-18T07:46:57.633Z,3.30
2023-03-18T07:49:25.099Z,3.93
2023-03-18T07:51:52.576Z,3.57
2023-03-18T07:54:20.035Z,3.83
2023-03-18T07:56:49.150Z,3.97
2023-03-18T07:59:18.649Z,3.40
2023-03-18T08:01:46.237Z,3.40
2023-03-18T08:04:13.756Z,3.50
2023-03-18T08:06:41.673Z,3.43
2023-03-18T08:09:09.520Z,3.37
2023-03-18T08:11:38.057Z,3.80
2023-03-18T08:14:07.153Z,3.90
2023-03-18T08:16:34.593Z,3.67
2023-03-18T08:19:02.025Z,3.33
2023-03-18T08:21:29.735Z,4.00
2023-03-18T08:23:58.047Z,3.70
2023-03-18T08:26:25.578Z,3.40
2023-03-18T08:28:53.138Z,3.57
2023-03-18T08:31:22.034Z,3.60
2023-03-18T08:33:49.446Z,3.80
2023-03-18T08:36:17.233Z,3.17
2023-03-18T08:38:45.286Z,3.60
2023-03-18T08:41:13.089Z,3.70
2023-03-18T08:43:40.776Z,3.20
2023-03-18T08:46:08.520Z,3.00
2023-03-18T08:48:37.265Z,3.33
2023-03-18T08:51:04.938Z,3.27
2023-03-18T08:53:32.798Z,3.23
2023-03-18T08:56:02.806Z,3.50
2023-03-18T08:58:30.403Z,3.23
2023-03-18T09:00:58.199Z,3.20
2023-03-18T09:03:25.740Z,2.87
2023-03-18T09:05:55.458Z,3.00
2023-03-18T09:08:23.521Z,3.00
2023-03-18T09:10:53.402Z,3.03
2023-03-18T09:13:21.052Z,2.90
2023-03-18T09:15:48.580Z,3.27
2023-03-18T09:18:16.474Z,2.90
2023-03-18T09:20:45.161Z,2.97
2023-03-18T09:23:14.591Z,2.80
2023-03-18T09:25:42.718Z,2.90
2023-03-18T09:28:10.230Z,2.70
2023-03-18T09:30:37.788Z,3.13
2023-03-18T09:33:06.729Z,2.87
2023-03-18T09:35:35.276Z,2.73
2023-03-18T09:38:04.049Z,2.60
2023-03-18T09:40:36.830Z,2.50
2023-03-18T09:43:16.033Z,4.10
2023-03-18T09:45:47.624Z,3.03
2023-03-18T09:48:36.854Z,3.10
2023-03-18T09:51:08.749Z,5.50
2023-03-18T09:53:41.835Z,3.77
2023-03-18T09:56:14.275Z,2.50
2023-03-18T09:58:46.426Z,5.80
2023-03-18T10:01:15.101Z,2.47
2023-03-18T10:03:46.671Z,2.73
2023-03-18T10:06:18.068Z,2.60
2023-03-18T10:08:49.308Z,2.60
2023-03-18T10:11:22.328Z,2.27
2023-03-18T10:13:55.579Z,2.53
2023-03-18T10:16:25.991Z,2.70
2023-03-18T10:18:54.553Z,2.40
2023-03-18T10:21:25.940Z,2.00
2023-03-18T10:23:57.021Z,2.10
2023-03-18T10:26:28.142Z,2.10
2023-03-18T10:29:04.624Z,1.80
2023-03-18T10:31:48.661Z,1.70
2023-03-18T10:34:17.317Z,2.10
2023-03-18T10:36:51.096Z,1.60
2023-03-18T10:39:19.622Z,1.73
2023-03-18T10:41:51.007Z,1.50
2023-03-18T10:44:21.087Z,1.77
2023-03-18T10:46:59.583Z,2.03
2023-03-18T10:49:29.299Z,1.90
2023-03-18T10:51:58.855Z,1.70
2023-03-18T10:54:28.633Z,1.77
2023-03-18T10:56:57.949Z,1.60
2023-03-18T10:59:26.453Z,2.07
2023-03-18T11:01:55.910Z,1.50
2023-03-18T11:04:23.870Z,1.70
2023-03-18T11:06:53.210Z,1.70
2023-03-18T11:09:22.166Z,1.57
2023-03-18T11:11:51.184Z,1.30
2023-03-18T11:14:22.447Z,1.40
2023-03-18T11:16:51.005Z,1.40
2023-03-18T11:19:29.482Z,1.30
2023-03-18T11:22:01.904Z,1.50
2023-03-18T11:24:38.677Z,1.90
2023-03-18T11:27:23.583Z,1.50
2023-03-18T11:29:56.236Z,1.43
2023-03-18T11:32:25.408Z,1.30
2023-03-18T11:34:55.691Z,1.30
2023-03-18T11:37:25.789Z,1.27
2023-03-18T11:39:58.990Z,1.40
2023-03-18T11:42:26.693Z,1.43
2023-03-18T11:44:57.007Z,1.20
2023-03-18T11:47:27.245Z,1.10
2023-03-18T11:49:54.647Z,1.33
2023-03-18T11:52:30.678Z,1.30
2023-03-18T11:55:15.654Z,1.30
2023-03-18T11:57:52.260Z,1.40
2023-03-18T12:00:25.365Z,1.30
2023-03-18T12:03:06.841Z,1.40
2023-03-18T12:05:38.654Z,0.93
2023-03-18T12:08:11.962Z,1.20
2023-03-18T12:10:41.557Z,1.43
2023-03-18T12:13:19.601Z,1.40
2023-03-18T12:15:53.126Z,1.50
2023-03-18T12:18:31.639Z,1.40
2023-03-18T12:21:02.185Z,1.20
2023-03-18T12:23:36.508Z,1.30
2023-03-18T12:26:06.029Z,1.30
2023-03-18T12:28:39.121Z,1.53
2023-03-18T12:31:17.339Z,1.83
2023-03-18T12:33:50.894Z,1.80
2023-03-18T12:36:21.632Z,1.57
2023-03-18T12:38:57.827Z,1.80
2023-03-18T12:41:30.251Z,1.80
2023-03-18T12:44:05.840Z,1.60
2023-03-18T12:46:37.324Z,1.67
2023-03-18T12:49:10.811Z,1.40
2023-03-18T12:51:43.444Z,1.40
2023-03-18T12:54:16.074Z,1.60
2023-03-18T12:56:46.131Z,1.40
2023-03-18T12:59:16.459Z,1.47
2023-03-18T13:01:50.076Z,1.40
2023-03-18T13:04:22.184Z,1.50
2023-03-18T13:06:53.774Z,1.50
2023-03-18T13:09:26.479Z,1.80
2023-03-18T13:12:02.854Z,1.87
2023-03-18T13:14:33.737Z,1.30
2023-03-18T13:17:02.943Z,1.40
2023-03-18T13:19:31.218Z,1.60
2023-03-18T13:22:05.262Z,1.40
2023-03-18T13:24:48.649Z,1.30
2023-03-18T13:27:24.329Z,1.57
2023-03-18T13:29:55.280Z,1.60
2023-03-18T13:32:31.738Z,1.50
2023-03-18T13:35:15.869Z,1.40
2023-03-18T13:37:54.314Z,1.50
2023-03-18T13:40:43.405Z,1.50
2023-03-18T13:43:13.364Z,1.30
2023-03-18T13:45:41.977Z,1.57
2023-03-18T13:48:12.365Z,1.57
2023-03-18T13:50:42.168Z,1.47
2023-03-18T13:53:20.118Z,1.50
2023-03-18T13:55:49.836Z,1.60
2023-03-18T13:58:22.790Z,1.63
2023-03-18T14:01:09.336Z,1.37
2023-03-18T14:03:51.995Z,2.13
2023-03-18T14:06:22.526Z,2.10
2023-03-18T14:08:51.076Z,2.10
2023-03-18T14:11:50.277Z,2.10
2023-03-18T14:14:36.787Z,1.80
2023-03-18T14:17:05.352Z,1.77
2023-03-18T14:19:33.588Z,1.63
2023-03-18T14:22:09.368Z,1.63
2023-03-18T14:24:37.405Z,2.20
2023-03-18T14:27:15.731Z,1.70
2023-03-18T14:29:44.206Z,2.10
2023-03-18T14:32:26.965Z,1.90
2023-03-18T14:34:55.134Z,2.20
2023-03-18T14:37:29.174Z,1.70
2023-03-18T14:40:08.663Z,1.80
2023-03-18T14:42:47.148Z,2.20
2023-03-18T14:45:19.313Z,2.13
2023-03-18T14:47:49.384Z,2.20
2023-03-18T14:50:20.252Z,2.07
2023-03-18T14:52:53.250Z,2.60
2023-03-18T14:55:23.118Z,2.47
2023-03-18T14:57:51.775Z,2.10
2023-03-18T15:00:24.994Z,2.00
2023-03-18T15:03:00.678Z,2.00
2023-03-18T15:05:32.021Z,2.10
2023-03-18T15:08:01.066Z,2.23
2023-03-18T15:10:30.509Z,2.25
2023-03-18T15:12:58.682Z,1.67
2023-03-18T15:15:26.207Z,2.07
2023-03-18T15:17:54.042Z,2.17
2023-03-18T15:20:21.926Z,2.33
2023-03-18T15:22:50.071Z,2.30
2023-03-18T15:25:20.680Z,2.63
2023-03-18T15:27:48.467Z,2.37
2023-03-18T15:30:25.688Z,2.70
2023-03-18T15:32:56.573Z,2.40
2023-03-18T15:35:26.279Z,2.80
2023-03-18T15:38:04.743Z,2.33
2023-03-18T15:40:36.160Z,2.47
2023-03-18T15:43:13.437Z,2.10
2023-03-18T15:45:41.991Z,2.33
2023-03-18T15:48:19.723Z,1.93
2023-03-18T15:50:52.885Z,2.30
2023-03-18T15:53:22.627Z,3.00
2023-03-18T15:55:52.809Z,3.60
2023-03-18T15:58:21.767Z,2.80
2023-03-18T16:00:49.489Z,4.00
2023-03-18T16:03:21.648Z,2.20
2023-03-18T16:05:49.150Z,2.00
2023-03-18T16:08:17.741Z,2.20
2023-03-18T16:10:46.791Z,1.77
2023-03-18T16:13:20.556Z,1.90
2023-03-18T16:15:48.460Z,1.70
2023-03-18T16:18:18.167Z,1.63
2023-03-18T16:20:46.761Z,1.70
2023-03-18T16:23:15.291Z,1.60
2023-03-18T16:25:47.592Z,1.43
2023-03-18T16:28:21.045Z,1.77
2023-03-18T16:30:49.512Z,2.00
2023-03-18T16:33:18.266Z,1.53
2023-03-18T16:35:47.087Z,1.50
2023-03-18T16:38:16.441Z,1.70
2023-03-18T16:40:44.191Z,1.60
2023-03-18T16:43:16.700Z,1.60
2023-03-18T16:45:45.605Z,1.57
2023-03-18T16:48:14.934Z,1.70
2023-03-18T16:50:43.612Z,1.70
2023-03-18T16:53:17.427Z,1.40
2023-03-18T16:55:45.595Z,1.57
2023-03-18T16:58:17.250Z,1.50
2023-03-18T17:00:48.218Z,1.97
2023-03-18T17:03:18.133Z,1.40
2023-03-18T17:05:46.286Z,1.53
2023-03-18T17:08:14.170Z,1.40
2023-03-18T17:10:42.493Z,1.43
2023-03-18T17:13:14.560Z,1.40
2023-03-18T17:15:42.908Z,1.47
2023-03-18T17:18:14.671Z,1.90
2023-03-18T17:20:42.570Z,1.60
2023-03-18T17:23:13.141Z,1.63
2023-03-18T17:25:40.850Z,1.80
2023-03-18T17:28:08.643Z,2.50
2023-03-18T17:30:36.953Z,1.80
2023-03-18T17:33:05.186Z,2.60
2023-03-18T17:35:34.244Z,3.10
2023-03-18T17:38:01.802Z,2.97
2023-03-18T17:40:30.006Z,2.00
2023-03-18T17:42:57.512Z,1.57
2023-03-18T17:45:27.018Z,1.83
2023-03-18T17:47:54.603Z,2.50
2023-03-18T17:50:22.035Z,2.00
2023-03-18T17:52:52.432Z,2.50
2023-03-18T17:55:22.649Z,2.43
2023-03-18T17:57:51.440Z,2.13
2023-03-18T18:00:21.364Z,2.17
2023-03-18T18:02:49.286Z,2.13
2023-03-18T18:05:17.686Z,1.70
2023-03-18T18:07:45.836Z,1.50
2023-03-18T18:10:15.563Z,2.00
2023-03-18T18:12:43.564Z,1.90
2023-03-18T18:15:18.289Z,2.43
2023-03-18T18:17:46.209Z,3.27
2023-03-18T18:20:15.326Z,4.13
2023-03-18T18:22:44.616Z,3.90
2023-03-18T18:25:17.532Z,3.50
2023-03-18T18:27:46.320Z,3.30
2023-03-18T18:30:15.316Z,4.10
2023-03-18T18:32:43.698Z,3.70
2023-03-18T18:35:14.720Z,3.30
2023-03-18T18:37:42.282Z,3.40
2023-03-18T18:40:11.908Z,3.73
2023-03-18T18:42:41.932Z,3.63
2023-03-18T18:45:10.308Z,3.77
2023-03-18T18:47:38.490Z,3.40
2023-03-18T18:50:06.526Z,3.33
2023-03-18T18:52:34.206Z,3.23
2023-03-18T18:55:01.637Z,2.53
2023-03-18T18:57:29.981Z,1.90
2023-03-18T18:59:58.729Z,1.57
2023-03-18T19:02:29.986Z,1.60
2023-03-18T19:04:57.926Z,1.53
2023-03-18T19:07:25.693Z,1.80
2023-03-18T19:09:53.666Z,1.73
2023-03-18T19:12:21.459Z,1.80
2023-03-18T19:14:49.020Z,1.73
2023-03-18T19:17:18.724Z,1.83
2023-03-18T19:19:46.478Z,1.50
2023-03-18T19:22:15.350Z,1.90
2023-03-18T19:24:43.631Z,2.03
2023-03-18T19:27:14.988Z,2.00
2023-03-18T19:29:42.782Z,1.90
2023-03-18T19:32:15.017Z,2.23
2023-03-18T19:34:43.769Z,2.03
2023-03-18T19:37:15.407Z,1.80
2023-03-18T19:39:42.919Z,2.10
2023-03-18T19:42:12.955Z,2.10
2023-03-18T19:44:40.839Z,2.20
2023-03-18T19:47:13.129Z,2.30
2023-03-18T19:49:40.846Z,2.07
2023-03-18T19:52:17.045Z,2.17
2023-03-18T19:54:44.745Z,2.13
2023-03-18T19:57:14.272Z,2.00
2023-03-18T19:59:41.898Z,2.30
2023-03-18T20:02:18.316Z,2.00
2023-03-18T20:04:45.882Z,1.90
2023-03-18T20:07:14.649Z,1.80
2023-03-18T20:09:42.121Z,1.77
2023-03-18T20:12:19.282Z,1.80
2023-03-18T20:14:46.825Z,2.00
2023-03-18T20:17:33.098Z,2.10
2023-03-18T20:20:00.994Z,2.40
2023-03-18T20:22:30.756Z,2.50
2023-03-18T20:24:58.223Z,2.63
2023-03-18T20:27:25.640Z,2.60
2023-03-18T20:29:53.024Z,2.70
2023-03-18T20:32:20.449Z,2.23
2023-03-18T20:34:48.430Z,2.10
2023-03-18T20:37:20.990Z,2.10
2023-03-18T20:39:50.528Z,2.27
2023-03-18T20:42:18.416Z,2.00
2023-03-18T20:44:46.216Z,2.10
2023-03-18T20:47:14.418Z,2.17
2023-03-18T20:49:44.555Z,2.20
2023-03-18T20:52:29.971Z,2.13
2023-03-18T20:54:58.911Z,2.50
2023-03-18T20:57:27.368Z,2.10
2023-03-18T20:59:54.810Z,2.50
2023-03-18T21:02:30.554Z,2.50
2023-03-18T21:04:57.985Z,3.00
2023-03-18T21:07:25.490Z,2.57
2023-03-18T21:09:53.232Z,2.23
2023-03-18T21:12:22.593Z,2.00
2023-03-18T21:14:50.369Z,2.60
2023-03-18T21:17:18.701Z,2.70
2023-03-18T21:19:46.188Z,2.20
2023-03-18T21:22:16.178Z,2.07
2023-03-18T21:24:43.680Z,2.50
2023-03-18T21:27:15.733Z,2.40
2023-03-18T21:29:45.037Z,2.20
2023-03-18T21:32:18.125Z,2.60
2023-03-18T21:34:46.107Z,2.60
2023-03-18T21:37:14.918Z,2.30
2023-03-18T21:39:42.788Z,2.50
2023-03-18T21:42:15.806Z,2.73
2023-03-18T21:44:44.870Z,2.70
2023-03-18T21:47:14.270Z,2.33
2023-03-18T21:49:42.225Z,2.70
2023-03-18T21:52:15.757Z,2.47
2023-03-18T21:54:43.146Z,2.57
2023-03-18T21:57:13.045Z,2.80
2023-03-18T21:59:40.653Z,2.70
2023-03-18T22:02:13.934Z,3.00
2023-03-18T22:04:41.744Z,2.67
2023-03-18T22:07:12.758Z,2.77
2023-03-18T22:09:40.940Z,2.50
2023-03-18T22:12:12.562Z,2.50
2023-03-18T22:14:40.049Z,2.50
2023-03-18T22:17:16.923Z,2.67
2023-03-18T22:19:44.386Z,2.57
2023-03-18T22:22:13.107Z,2.50
2023-03-18T22:24:40.591Z,2.37
2023-03-18T22:27:12.270Z,2.53
2023-03-18T22:29:39.745Z,2.43
2023-03-18T22:32:07.452Z,2.50
2023-03-18T22:34:36.316Z,2.33
2023-03-18T22:37:03.779Z,2.73
2023-03-18T22:39:31.316Z,2.50
2023-03-18T22:41:58.766Z,2.50
2023-03-18T22:44:26.294Z,2.20
2023-03-18T22:46:53.819Z,2.40
2023-03-18T22:49:21.260Z,2.27
2023-03-18T22:51:50.035Z,2.60
2023-03-18T22:54:18.668Z,2.50
2023-03-18T22:56:46.298Z,2.60
2023-03-18T22:59:14.472Z,2.57
2023-03-18T23:01:42.016Z,2.70
2023-03-18T23:04:10.209Z,2.70
2023-03-18T23:06:37.633Z,2.80
2023-03-18T23:09:06.855Z,2.90
2023-03-18T23:11:35.222Z,2.40
2023-03-18T23:14:03.644Z,2.57
2023-03-18T23:16:31.119Z,2.70
2023-03-18T23:18:58.632Z,2.43
2023-03-18T23:21:26.400Z,2.63
2023-03-18T23:23:54.089Z,2.83
2023-03-18T23:26:23.029Z,2.50
2023-03-18T23:28:50.496Z,2.90
2023-03-18T23:31:18.112Z,2.67
2023-03-18T23:33:45.837Z,2.90
2023-03-18T23:36:13.466Z,2.93
2023-03-18T23:38:41.243Z,2.90
2023-03-18T23:41:09.173Z,2.60
2023-03-18T23:43:38.003Z,2.80
2023-03-18T23:46:05.672Z,2.63
2023-03-18T23:48:33.210Z,3.13
2023-03-18T23:51:00.693Z,4.37
2023-03-18T23:53:28.224Z,4.23
2023-03-18T23:55:55.920Z,4.43
2023-03-18T23:58:23.404Z,3.80
